createdAt,value
2023-04-27T00:00:04.246Z,82.65
2023-04-27T00:00:36.719Z,82.44
2023-04-27T00:01:09.267Z,82.75
2023-04-27T00:01:41.811Z,82.75
2023-04-27T00:03:57.848Z,83.62
2023-04-27T00:04:30.454Z,83.62
2023-04-27T00:05:02.926Z,83.72
2023-04-27T00:05:35.269Z,83.83
2023-04-27T00:06:07.815Z,83.72
2023-04-27T00:06:40.213Z,83.62
2023-04-27T00:07:12.732Z,83.83
2023-04-27T00:07:45.194Z,84.03
2023-04-27T00:08:17.763Z,84.23
2023-04-27T00:08:50.288Z,84.13
2023-04-27T00:09:22.787Z,84.23
2023-04-27T00:09:55.284Z,84.44
2023-04-27T00:10:27.756Z,84.44
2023-04-27T00:11:00.230Z,84.23
2023-04-27T00:11:32.734Z,84.48
2023-04-27T00:12:05.238Z,84.59
2023-04-27T00:12:37.722Z,84.59
2023-04-27T00:13:10.235Z,84.69
2023-04-27T00:13:42.717Z,84.69
2023-04-27T00:14:15.343Z,84.59
2023-04-27T00:14:47.836Z,84.48
2023-04-27T00:15:20.322Z,84.80
2023-04-27T00:15:52.861Z,84.90
2023-04-27T00:16:25.370Z,85.11
2023-04-27T00:16:57.877Z,85.00
2023-04-27T00:17:30.397Z,85.04
2023-04-27T00:18:02.944Z,85.14
2023-04-27T00:18:35.393Z,85.21
2023-04-27T00:19:07.907Z,85.14
2023-04-27T00:19:40.405Z,85.04
2023-04-27T00:20:12.929Z,85.14
2023-04-27T00:20:46.434Z,84.83
2023-04-27T00:21:19.117Z,84.83
2023-04-27T00:21:51.694Z,84.73
2023-04-27T00:22:24.175Z,84.73
2023-04-27T00:22:56.692Z,84.94
2023-04-27T00:23:29.170Z,85.14
2023-04-27T00:24:01.675Z,85.04
2023-04-27T00:24:34.188Z,85.25
2023-04-27T00:25:06.657Z,85.25
2023-04-27T00:25:39.163Z,84.98
2023-04-27T00:26:11.674Z,85.08
2023-04-27T00:26:44.122Z,85.08
2023-04-27T00:27:16.609Z,84.88
2023-04-27T00:27:49.089Z,84.88
2023-04-27T00:28:21.569Z,85.08
2023-04-27T00:28:54.075Z,85.08
2023-04-27T00:29:26.568Z,85.19
2023-04-27T00:29:59.033Z,85.33
2023-04-27T00:30:31.526Z,85.53
2023-04-27T00:31:03.992Z,85.53
2023-04-27T00:31:36.515Z,85.64
2023-04-27T00:32:09.055Z,85.53
2023-04-27T00:32:41.569Z,85.53
2023-04-27T00:33:13.928Z,85.53
2023-04-27T00:33:46.432Z,85.64
2023-04-27T00:34:18.949Z,85.74
2023-04-27T00:34:51.395Z,85.95
2023-04-27T00:35:23.892Z,86.16
2023-04-27T00:35:56.388Z,86.16
2023-04-27T00:36:28.848Z,85.95
2023-04-27T00:37:01.322Z,86.16
2023-04-27T00:37:33.813Z,86.05
2023-04-27T00:38:06.346Z,85.99
2023-04-27T00:38:38.858Z,85.88
2023-04-27T00:39:11.489Z,85.99
2023-04-27T00:39:43.948Z,85.88
2023-04-27T00:40:16.412Z,85.68
2023-04-27T00:40:48.917Z,85.78
2023-04-27T00:41:21.393Z,85.78
2023-04-27T00:41:53.868Z,85.68
2023-04-27T00:42:26.322Z,85.78
2023-04-27T00:42:58.816Z,85.88
2023-04-27T00:43:31.297Z,86.19
2023-04-27T00:44:03.764Z,86.24
2023-04-27T00:44:37.576Z,86.34
2023-04-27T00:45:08.776Z,86.76
2023-04-27T00:45:41.341Z,86.86
2023-04-27T00:46:13.768Z,86.96
2023-04-27T00:46:46.198Z,86.96
2023-04-27T00:47:18.749Z,87.17
2023-04-27T00:47:51.137Z,87.17
2023-04-27T00:48:23.602Z,86.86
2023-04-27T00:48:56.097Z,86.96
2023-04-27T00:49:28.583Z,86.86
2023-04-27T00:50:01.098Z,87.17
2023-04-27T00:50:33.568Z,87.48
2023-04-27T00:51:06.066Z,87.79
2023-04-27T00:51:38.593Z,87.90
2023-04-27T00:52:11.123Z,87.90
2023-04-27T00:52:43.599Z,88.00
2023-04-27T00:53:16.105Z,87.94
2023-04-27T00:53:48.576Z,87.84
2023-04-27T00:54:21.091Z,87.73
2023-04-27T00:54:53.554Z,87.63
2023-04-27T00:55:26.061Z,87.73
2023-04-27T00:55:58.531Z,87.63
2023-04-27T00:56:30.969Z,87.52
2023-04-27T00:57:03.489Z,87.73
2023-04-27T00:57:36.027Z,87.84
2023-04-27T00:58:08.544Z,87.63
2023-04-27T00:58:41.052Z,87.52
2023-04-27T00:59:13.754Z,87.52
2023-04-27T00:59:46.046Z,87.52
2023-04-27T01:00:18.551Z,87.52
2023-04-27T01:00:51.160Z,87.46
2023-04-27T01:01:23.618Z,87.46
2023-04-27T01:01:56.065Z,87.46
2023-04-27T01:02:28.669Z,87.35
2023-04-27T01:03:01.294Z,87.46
2023-04-27T01:03:33.677Z,87.35
2023-04-27T01:04:06.317Z,87.46
2023-04-27T01:04:38.680Z,87.66
2023-04-27T01:05:11.050Z,87.88
2023-04-27T01:05:43.539Z,87.98
2023-04-27T01:06:16.043Z,88.19
2023-04-27T01:06:48.576Z,88.29
2023-04-27T01:07:21.024Z,88.50
2023-04-27T01:07:53.538Z,88.60
2023-04-27T01:08:25.978Z,88.29
2023-04-27T01:08:58.476Z,88.40
2023-04-27T01:09:30.974Z,88.50
2023-04-27T01:10:03.416Z,88.50
2023-04-27T01:10:35.919Z,88.50
2023-04-27T01:11:08.385Z,88.50
2023-04-27T01:11:40.897Z,88.50
2023-04-27T01:12:13.381Z,88.60
2023-04-27T01:12:45.880Z,88.60
2023-04-27T01:13:18.413Z,88.43
2023-04-27T01:13:50.891Z,88.54
2023-04-27T01:14:23.422Z,88.64
2023-04-27T01:14:55.873Z,88.75
2023-04-27T01:15:28.469Z,88.85
2023-04-27T01:16:00.926Z,88.85
2023-04-27T01:16:33.455Z,88.85
2023-04-27T01:17:06.029Z,88.96
2023-04-27T01:17:38.411Z,88.96
2023-04-27T01:18:10.945Z,88.85
2023-04-27T01:18:43.346Z,88.96
2023-04-27T01:19:16.041Z,89.06
2023-04-27T01:19:48.288Z,88.96
2023-04-27T01:20:20.778Z,89.06
2023-04-27T01:20:53.247Z,89.27
2023-04-27T01:21:25.759Z,89.37
2023-04-27T01:21:58.262Z,89.27
2023-04-27T01:22:30.733Z,89.48
2023-04-27T01:23:03.191Z,89.27
2023-04-27T01:23:35.670Z,89.17
2023-04-27T01:24:08.170Z,89.27
2023-04-27T01:24:40.642Z,89.06
2023-04-27T01:25:13.145Z,88.96
2023-04-27T01:25:45.705Z,88.96
2023-04-27T01:26:18.223Z,89.06
2023-04-27T01:26:50.685Z,88.85
2023-04-27T01:27:23.163Z,88.68
2023-04-27T01:27:55.658Z,88.68
2023-04-27T01:28:28.153Z,88.68
2023-04-27T01:29:00.660Z,88.58
2023-04-27T01:29:33.151Z,88.48
2023-04-27T01:30:05.655Z,88.37
2023-04-27T01:30:38.154Z,88.58
2023-04-27T01:31:10.735Z,88.48
2023-04-27T01:31:43.182Z,88.48
2023-04-27T01:32:15.596Z,88.58
2023-04-27T01:32:48.105Z,88.58
2023-04-27T01:33:20.591Z,88.58
2023-04-27T01:33:53.773Z,88.68
2023-04-27T01:34:26.245Z,88.58
2023-04-27T01:34:58.751Z,88.58
2023-04-27T01:35:31.254Z,88.48
2023-04-27T01:36:03.722Z,88.58
2023-04-27T01:36:36.186Z,88.62
2023-04-27T01:37:08.655Z,88.52
2023-04-27T01:37:41.129Z,88.42
2023-04-27T01:38:13.599Z,88.62
2023-04-27T01:38:46.062Z,88.83
2023-04-27T01:39:18.596Z,88.83
2023-04-27T01:39:51.187Z,88.83
2023-04-27T01:40:23.666Z,89.04
2023-04-27T01:40:56.153Z,89.04
2023-04-27T01:41:28.637Z,88.93
2023-04-27T01:42:01.182Z,89.35
2023-04-27T01:42:33.679Z,89.25
2023-04-27T01:43:06.297Z,89.35
2023-04-27T01:43:38.748Z,89.56
2023-04-27T01:44:11.209Z,89.56
2023-04-27T01:44:43.684Z,89.45
2023-04-27T01:45:16.241Z,89.35
2023-04-27T01:45:48.796Z,89.35
2023-04-27T01:46:21.265Z,89.45
2023-04-27T01:46:53.873Z,89.56
2023-04-27T01:47:26.381Z,89.66
2023-04-27T01:47:58.849Z,89.56
2023-04-27T01:48:31.351Z,89.66
2023-04-27T01:49:03.814Z,89.56
2023-04-27T01:49:36.344Z,89.45
2023-04-27T01:50:08.818Z,89.56
2023-04-27T01:50:41.314Z,89.66
2023-04-27T01:51:13.847Z,89.56
2023-04-27T01:51:46.525Z,89.56
2023-04-27T01:52:19.004Z,89.45
2023-04-27T01:52:51.525Z,89.45
2023-04-27T01:53:24.015Z,89.35
2023-04-27T01:53:56.528Z,89.45
2023-04-27T01:54:28.967Z,89.35
2023-04-27T01:55:01.470Z,89.29
2023-04-27T01:55:33.945Z,89.18
2023-04-27T01:56:06.442Z,89.29
2023-04-27T01:56:38.921Z,89.29
2023-04-27T01:57:11.939Z,89.39
2023-04-27T01:57:44.345Z,89.39
2023-04-27T01:58:16.812Z,89.39
2023-04-27T01:58:49.293Z,89.50
2023-04-27T01:59:21.787Z,89.39
2023-04-27T01:59:54.290Z,89.39
2023-04-27T02:00:26.733Z,89.39
2023-04-27T02:00:59.357Z,89.50
2023-04-27T02:01:31.933Z,89.50
2023-04-27T02:02:04.484Z,89.50
2023-04-27T02:02:37.065Z,89.39
2023-04-27T02:03:09.496Z,89.39
2023-04-27T02:03:42.087Z,89.39
2023-04-27T02:04:14.500Z,89.43
2023-04-27T02:04:47.280Z,89.54
2023-04-27T02:05:19.741Z,89.43
2023-04-27T02:05:52.235Z,89.43
2023-04-27T02:06:24.737Z,89.54
2023-04-27T02:06:57.216Z,89.43
2023-04-27T02:07:29.703Z,89.43
2023-04-27T02:08:02.198Z,89.43
2023-04-27T02:08:34.717Z,89.64
2023-04-27T02:09:07.202Z,89.64
2023-04-27T02:09:39.744Z,89.75
2023-04-27T02:10:12.213Z,89.64
2023-04-27T02:10:44.723Z,89.75
2023-04-27T02:11:17.182Z,89.75
2023-04-27T02:11:49.689Z,89.64
2023-04-27T02:12:22.157Z,89.54
2023-04-27T02:12:54.684Z,89.64
2023-04-27T02:13:27.138Z,89.75
2023-04-27T02:13:59.595Z,89.68
2023-04-27T02:14:32.081Z,89.78
2023-04-27T02:15:04.537Z,89.78
2023-04-27T02:15:37.052Z,89.68
2023-04-27T02:16:09.578Z,89.68
2023-04-27T02:16:42.096Z,89.58
2023-04-27T02:17:14.515Z,89.58
2023-04-27T02:17:47.115Z,89.68
2023-04-27T02:18:19.518Z,89.68
2023-04-27T02:18:52.048Z,89.78
2023-04-27T02:19:24.558Z,89.89
2023-04-27T02:19:57.038Z,90.10
2023-04-27T02:20:29.513Z,90.10
2023-04-27T02:21:02.008Z,89.89
2023-04-27T02:21:34.450Z,89.89
2023-04-27T02:22:06.912Z,89.89
2023-04-27T02:22:39.426Z,89.89
2023-04-27T02:23:11.956Z,89.89
2023-04-27T02:23:44.453Z,89.78
2023-04-27T02:24:16.939Z,89.89
2023-04-27T02:24:49.431Z,89.83
2023-04-27T02:25:21.936Z,90.00
2023-04-27T02:25:54.407Z,90.20
2023-04-27T02:26:26.877Z,90.72
2023-04-27T02:26:59.424Z,90.72
2023-04-27T02:27:31.931Z,90.93
2023-04-27T02:28:04.434Z,90.93
2023-04-27T02:28:36.935Z,90.93
2023-04-27T02:29:09.421Z,90.93
2023-04-27T02:29:41.891Z,90.83
2023-04-27T02:30:14.403Z,90.72
2023-04-27T02:30:46.849Z,90.72
2023-04-27T02:31:19.389Z,90.83
2023-04-27T02:31:54.855Z,90.72
2023-04-27T02:32:27.338Z,90.62
2023-04-27T02:32:59.886Z,90.52
2023-04-27T02:33:32.348Z,90.41
2023-04-27T02:34:04.839Z,90.52
2023-04-27T02:34:37.327Z,90.45
2023-04-27T02:35:09.827Z,90.52
2023-04-27T02:35:42.319Z,90.56
2023-04-27T02:36:14.771Z,90.83
2023-04-27T02:36:47.289Z,90.66
2023-04-27T02:37:19.730Z,90.56
2023-04-27T02:37:52.243Z,90.45
2023-04-27T02:38:24.725Z,90.66
2023-04-27T02:38:57.265Z,90.66
2023-04-27T02:39:29.752Z,90.66
2023-04-27T02:40:02.238Z,90.77
2023-04-27T02:40:34.712Z,90.77
2023-04-27T02:41:07.311Z,90.56
2023-04-27T02:41:39.862Z,90.56
2023-04-27T02:42:12.368Z,90.45
2023-04-27T02:42:44.885Z,90.45
2023-04-27T02:43:17.465Z,90.35
2023-04-27T02:43:49.964Z,90.35
2023-04-27T02:44:22.469Z,90.35
2023-04-27T02:44:54.944Z,90.35
2023-04-27T02:45:27.542Z,90.35
2023-04-27T02:46:00.112Z,90.56
2023-04-27T02:46:32.679Z,90.66
2023-04-27T02:47:05.121Z,90.56
2023-04-27T02:47:37.719Z,90.66
2023-04-27T02:48:10.182Z,90.66
2023-04-27T02:48:42.607Z,90.81
2023-04-27T02:49:15.432Z,90.70
2023-04-27T02:49:47.633Z,90.81
2023-04-27T02:50:20.093Z,90.70
2023-04-27T02:50:52.574Z,90.60
2023-04-27T02:51:25.065Z,90.70
2023-04-27T02:51:57.602Z,90.91
2023-04-27T02:52:30.067Z,91.22
2023-04-27T02:53:02.550Z,91.43
2023-04-27T02:53:35.019Z,91.60
2023-04-27T02:54:07.513Z,91.60
2023-04-27T02:54:40.045Z,91.91
2023-04-27T02:55:12.571Z,92.02
2023-04-27T02:55:45.052Z,92.22
2023-04-27T02:56:17.540Z,92.60
2023-04-27T02:56:50.050Z,93.02
2023-04-27T02:57:22.498Z,92.77
2023-04-27T02:57:54.989Z,92.66
2023-04-27T02:58:27.486Z,92.66
2023-04-27T02:58:59.954Z,92.46
2023-04-27T02:59:32.466Z,92.46
2023-04-27T03:00:05.029Z,92.35
2023-04-27T03:00:37.491Z,92.14
2023-04-27T03:01:10.018Z,91.83
2023-04-27T03:01:42.631Z,92.00
2023-04-27T03:02:14.977Z,92.31
2023-04-27T03:02:47.553Z,92.31
2023-04-27T03:03:20.079Z,92.21
2023-04-27T03:03:52.564Z,92.21
2023-04-27T03:04:25.096Z,91.89
2023-04-27T03:04:57.489Z,91.78
2023-04-27T03:05:29.933Z,91.78
2023-04-27T03:06:02.440Z,91.78
2023-04-27T03:06:34.897Z,91.68
2023-04-27T03:07:07.381Z,91.43
2023-04-27T03:07:39.885Z,91.47
2023-04-27T03:08:12.344Z,91.27
2023-04-27T03:08:44.823Z,91.06
2023-04-27T03:09:17.430Z,90.95
2023-04-27T03:09:49.834Z,90.75
2023-04-27T03:10:22.328Z,90.54
2023-04-27T03:10:54.820Z,90.47
2023-04-27T03:11:27.330Z,90.37
2023-04-27T03:11:59.866Z,90.16
2023-04-27T03:12:32.380Z,89.95
2023-04-27T03:13:04.873Z,89.75
2023-04-27T03:13:37.354Z,89.68
2023-04-27T03:14:09.822Z,89.58
2023-04-27T03:14:42.291Z,89.68
2023-04-27T03:15:14.789Z,89.47
2023-04-27T03:15:47.240Z,89.37
2023-04-27T03:16:19.752Z,89.47
2023-04-27T03:16:52.193Z,89.51
2023-04-27T03:17:24.734Z,89.72
2023-04-27T03:17:57.214Z,89.93
2023-04-27T03:18:29.686Z,90.03
2023-04-27T03:19:02.326Z,90.14
2023-04-27T03:19:34.836Z,90.14
2023-04-27T03:20:07.319Z,90.03
2023-04-27T03:20:39.829Z,90.25
2023-04-27T03:21:12.311Z,90.14
2023-04-27T03:21:44.802Z,90.03
2023-04-27T03:22:17.310Z,89.93
2023-04-27T03:22:49.850Z,89.83
2023-04-27T03:23:22.314Z,89.83
2023-04-27T03:23:54.821Z,89.83
2023-04-27T03:24:27.317Z,89.87
2023-04-27T03:24:59.809Z,89.76
2023-04-27T03:25:32.299Z,89.66
2023-04-27T03:26:04.770Z,89.66
2023-04-27T03:26:37.265Z,89.66
2023-04-27T03:27:09.731Z,89.66
2023-04-27T03:27:42.213Z,89.66
2023-04-27T03:28:14.720Z,89.70
2023-04-27T03:28:47.201Z,89.70
2023-04-27T03:29:19.649Z,89.70
2023-04-27T03:29:52.143Z,89.70
2023-04-27T03:30:24.652Z,89.81
2023-04-27T03:30:57.113Z,90.01
2023-04-27T03:31:29.625Z,90.12
2023-04-27T03:32:02.166Z,90.22
2023-04-27T03:32:34.676Z,90.43
2023-04-27T03:33:07.122Z,90.43
2023-04-27T03:33:39.588Z,90.53
2023-04-27T03:34:12.079Z,90.53
2023-04-27T03:34:44.715Z,90.53
2023-04-27T03:35:17.218Z,90.85
2023-04-27T03:35:49.683Z,90.85
2023-04-27T03:36:22.195Z,91.06
2023-04-27T03:36:54.645Z,91.37
2023-04-27T03:37:27.130Z,91.47
2023-04-27T03:37:59.649Z,91.79
2023-04-27T03:38:32.155Z,92.00
2023-04-27T03:39:04.671Z,92.10
2023-04-27T03:39:37.166Z,92.21
2023-04-27T03:40:09.676Z,92.58
2023-04-27T03:40:42.175Z,92.69
2023-04-27T03:41:14.681Z,92.79
2023-04-27T03:41:47.150Z,93.10
2023-04-27T03:42:19.649Z,93.52
2023-04-27T03:42:52.140Z,93.90
2023-04-27T03:43:24.644Z,93.69
2023-04-27T03:43:57.136Z,93.59
2023-04-27T03:44:29.605Z,93.59
2023-04-27T03:45:02.125Z,93.37
2023-04-27T03:45:34.600Z,93.16
2023-04-27T03:46:07.098Z,93.16
2023-04-27T03:46:39.534Z,93.06
2023-04-27T03:47:12.009Z,92.85
2023-04-27T03:47:44.618Z,92.75
2023-04-27T03:48:17.027Z,92.65
2023-04-27T03:48:49.513Z,92.65
2023-04-27T03:49:21.994Z,92.65
2023-04-27T03:49:55.074Z,92.54
2023-04-27T03:50:29.497Z,92.33
2023-04-27T03:51:00.136Z,92.33
2023-04-27T03:51:32.954Z,92.37
2023-04-27T03:52:05.421Z,92.27
2023-04-27T03:52:37.924Z,92.06
2023-04-27T03:53:10.390Z,92.06
2023-04-27T03:53:42.908Z,91.96
2023-04-27T03:54:15.400Z,91.85
2023-04-27T03:54:47.961Z,92.16
2023-04-27T03:55:20.436Z,91.96
2023-04-27T03:55:52.908Z,91.85
2023-04-27T03:56:25.372Z,91.75
2023-04-27T03:56:57.935Z,91.64
2023-04-27T03:57:30.439Z,91.58
2023-04-27T03:58:03.002Z,91.37
2023-04-27T03:58:35.521Z,91.27
2023-04-27T03:59:08.057Z,91.27
2023-04-27T03:59:40.548Z,91.16
2023-04-27T04:00:13.110Z,91.16
2023-04-27T04:00:45.600Z,91.06
2023-04-27T04:01:18.079Z,91.06
2023-04-27T04:01:50.616Z,91.06
2023-04-27T04:02:23.202Z,91.31
2023-04-27T04:02:55.837Z,91.62
2023-04-27T04:03:28.299Z,91.62
2023-04-27T04:04:00.692Z,91.62
2023-04-27T04:04:33.306Z,91.52
2023-04-27T04:05:05.652Z,91.52
2023-04-27T04:05:38.103Z,91.52
2023-04-27T04:06:10.563Z,91.41
2023-04-27T04:06:43.014Z,91.52
2023-04-27T04:07:15.507Z,91.41
2023-04-27T04:07:47.998Z,91.41
2023-04-27T04:08:20.511Z,91.41
2023-04-27T04:08:53.063Z,91.35
2023-04-27T04:09:25.566Z,91.35
2023-04-27T04:09:58.065Z,91.35
2023-04-27T04:10:30.621Z,91.35
2023-04-27T04:11:03.123Z,91.35
2023-04-27T04:11:35.596Z,91.25
2023-04-27T04:12:08.148Z,91.25
2023-04-27T04:12:40.614Z,91.25
2023-04-27T04:13:13.130Z,91.35
2023-04-27T04:13:45.744Z,91.35
2023-04-27T04:14:18.248Z,91.25
2023-04-27T04:14:50.739Z,91.25
2023-04-27T04:15:23.203Z,91.25
2023-04-27T04:15:55.741Z,91.25
2023-04-27T04:16:28.303Z,91.25
2023-04-27T04:17:00.726Z,91.25
2023-04-27T04:17:33.268Z,91.35
2023-04-27T04:18:05.787Z,91.39
2023-04-27T04:18:38.218Z,91.39
2023-04-27T04:19:10.691Z,91.39
2023-04-27T04:19:43.198Z,91.39
2023-04-27T04:20:15.674Z,91.39
2023-04-27T04:20:48.197Z,91.39
2023-04-27T04:21:20.692Z,91.39
2023-04-27T04:21:53.181Z,91.50
2023-04-27T04:22:25.677Z,91.50
2023-04-27T04:22:58.167Z,91.60
2023-04-27T04:23:30.643Z,91.91
2023-04-27T04:24:03.116Z,92.33
2023-04-27T04:24:35.606Z,92.92
2023-04-27T04:25:08.085Z,93.33
2023-04-27T04:25:40.586Z,93.44
2023-04-27T04:26:13.090Z,93.65
2023-04-27T04:26:45.552Z,93.65
2023-04-27T04:27:18.041Z,93.76
2023-04-27T04:27:50.520Z,93.86
2023-04-27T04:28:23.025Z,93.96
2023-04-27T04:28:55.552Z,93.96
2023-04-27T04:29:28.035Z,93.86
2023-04-27T04:30:00.514Z,93.76
2023-04-27T04:30:32.999Z,93.65
2023-04-27T04:31:05.686Z,93.65
2023-04-27T04:31:38.077Z,93.54
2023-04-27T04:32:10.486Z,93.44
2023-04-27T04:32:42.992Z,93.33
2023-04-27T04:33:15.489Z,93.33
2023-04-27T04:33:48.006Z,93.23
2023-04-27T04:34:20.506Z,93.23
2023-04-27T04:34:53.027Z,93.13
2023-04-27T04:35:25.555Z,93.13
2023-04-27T04:35:58.117Z,93.02
2023-04-27T04:36:30.646Z,92.92
2023-04-27T04:37:03.123Z,92.92
2023-04-27T04:37:35.625Z,92.82
2023-04-27T04:38:08.113Z,92.82
2023-04-27T04:38:40.613Z,92.82
2023-04-27T04:39:13.400Z,92.82
2023-04-27T04:39:45.587Z,92.92
2023-04-27T04:40:18.080Z,92.92
2023-04-27T04:40:50.555Z,93.02
2023-04-27T04:41:23.033Z,93.23
2023-04-27T04:41:55.504Z,93.19
2023-04-27T04:42:27.990Z,93.08
2023-04-27T04:43:00.450Z,93.19
2023-04-27T04:43:32.975Z,93.08
2023-04-27T04:44:05.639Z,93.08
2023-04-27T04:44:38.086Z,93.08
2023-04-27T04:45:10.595Z,93.08
2023-04-27T04:45:43.053Z,93.08
2023-04-27T04:46:15.571Z,93.08
2023-04-27T04:46:48.108Z,93.08
2023-04-27T04:47:20.586Z,93.19
2023-04-27T04:47:53.039Z,93.40
2023-04-27T04:48:25.584Z,93.61
2023-04-27T04:48:58.067Z,94.02
2023-04-27T04:49:30.593Z,94.29
2023-04-27T04:50:03.144Z,94.50
2023-04-27T04:50:35.668Z,94.71
2023-04-27T04:51:08.138Z,94.92
2023-04-27T04:51:40.619Z,95.03
2023-04-27T04:52:13.107Z,95.09
2023-04-27T04:52:45.669Z,95.09
2023-04-27T04:53:18.242Z,94.98
2023-04-27T04:53:50.784Z,94.88
2023-04-27T04:54:23.285Z,94.94
2023-04-27T04:54:55.755Z,94.84
2023-04-27T04:55:28.298Z,94.84
2023-04-27T04:56:00.870Z,95.04
2023-04-27T04:56:33.411Z,95.15
2023-04-27T04:57:05.950Z,95.10
2023-04-27T04:57:38.380Z,95.00
2023-04-27T04:58:10.881Z,94.79
2023-04-27T04:58:43.370Z,94.58
2023-04-27T04:59:15.926Z,94.48
2023-04-27T04:59:48.408Z,94.37
2023-04-27T05:00:20.939Z,94.27
2023-04-27T05:00:53.472Z,94.17
2023-04-27T05:01:26.001Z,94.06
2023-04-27T05:01:58.650Z,93.96
2023-04-27T05:02:31.123Z,93.85
2023-04-27T05:03:03.608Z,93.75
2023-04-27T05:03:36.221Z,93.75
2023-04-27T05:04:08.803Z,93.54
2023-04-27T05:04:41.217Z,93.44
2023-04-27T05:05:13.614Z,93.44
2023-04-27T05:05:46.129Z,93.23
2023-04-27T05:06:18.655Z,93.12
2023-04-27T05:06:51.171Z,93.12
2023-04-27T05:07:24.907Z,93.02
2023-04-27T05:07:56.148Z,92.91
2023-04-27T05:08:28.622Z,92.91
2023-04-27T05:09:01.145Z,92.81
2023-04-27T05:09:33.676Z,92.81
2023-04-27T05:10:06.199Z,92.81
2023-04-27T05:10:38.857Z,92.81
2023-04-27T05:11:11.368Z,92.81
2023-04-27T05:11:43.897Z,92.81
2023-04-27T05:12:16.357Z,92.71
2023-04-27T05:12:48.855Z,92.81
2023-04-27T05:13:21.326Z,92.81
2023-04-27T05:13:53.796Z,92.71
2023-04-27T05:14:26.329Z,92.71
2023-04-27T05:14:58.844Z,92.50
2023-04-27T05:15:31.307Z,92.60
2023-04-27T05:16:03.891Z,92.60
2023-04-27T05:16:36.453Z,92.50
2023-04-27T05:17:08.870Z,92.60
2023-04-27T05:17:41.417Z,92.71
2023-04-27T05:18:13.887Z,92.60
2023-04-27T05:18:46.368Z,92.66
2023-04-27T05:19:18.826Z,92.77
2023-04-27T05:19:51.323Z,92.87
2023-04-27T05:20:23.819Z,92.97
2023-04-27T05:20:56.336Z,93.04
2023-04-27T05:21:28.841Z,93.14
2023-04-27T05:22:01.372Z,93.14
2023-04-27T05:22:33.857Z,93.10
2023-04-27T05:23:06.336Z,93.20
2023-04-27T05:23:38.829Z,93.41
2023-04-27T05:24:11.330Z,93.48
2023-04-27T05:24:43.832Z,93.27
2023-04-27T05:25:16.329Z,93.16
2023-04-27T05:25:48.830Z,93.01
2023-04-27T05:26:21.315Z,92.91
2023-04-27T05:26:53.833Z,92.80
2023-04-27T05:27:26.307Z,92.60
2023-04-27T05:27:58.804Z,92.49
2023-04-27T05:28:31.290Z,92.35
2023-04-27T05:29:03.794Z,92.35
2023-04-27T05:29:36.282Z,92.24
2023-04-27T05:30:08.762Z,92.24
2023-04-27T05:30:41.235Z,92.24
2023-04-27T05:31:13.705Z,92.14
2023-04-27T05:31:46.184Z,92.03
2023-04-27T05:32:18.628Z,91.93
2023-04-27T05:32:51.147Z,91.99
2023-04-27T05:33:23.598Z,91.99
2023-04-27T05:33:56.110Z,91.89
2023-04-27T05:34:28.589Z,91.89
2023-04-27T05:35:01.087Z,91.89
2023-04-27T05:35:33.573Z,91.85
2023-04-27T05:36:06.098Z,91.64
2023-04-27T05:36:38.586Z,91.64
2023-04-27T05:37:11.081Z,91.43
2023-04-27T05:37:43.582Z,91.18
2023-04-27T05:38:16.195Z,91.08
2023-04-27T05:38:48.664Z,90.87
2023-04-27T05:39:21.120Z,90.66
2023-04-27T05:39:53.645Z,90.62
2023-04-27T05:40:26.133Z,90.52
2023-04-27T05:40:58.694Z,90.31
2023-04-27T05:41:31.151Z,90.20
2023-04-27T05:42:03.628Z,90.20
2023-04-27T05:42:36.102Z,89.96
2023-04-27T05:43:08.574Z,89.75
2023-04-27T05:43:41.080Z,89.54
2023-04-27T05:44:13.569Z,89.34
2023-04-27T05:44:46.147Z,89.29
2023-04-27T05:45:18.692Z,89.19
2023-04-27T05:45:51.195Z,89.19
2023-04-27T05:46:23.703Z,89.19
2023-04-27T05:46:56.241Z,88.88
2023-04-27T05:47:28.849Z,88.32
2023-04-27T05:48:01.330Z,88.11
2023-04-27T05:48:33.785Z,87.90
2023-04-27T05:49:06.354Z,88.01
2023-04-27T05:49:38.805Z,87.90
2023-04-27T05:50:11.325Z,87.76
2023-04-27T05:50:43.860Z,87.76
2023-04-27T05:51:16.353Z,87.76
2023-04-27T05:51:48.924Z,87.30
2023-04-27T05:52:21.405Z,86.68
2023-04-27T05:52:53.930Z,86.07
2023-04-27T05:53:26.422Z,85.82
2023-04-27T05:53:58.928Z,85.61
2023-04-27T05:54:31.405Z,85.47
2023-04-27T05:55:03.957Z,85.36
2023-04-27T05:55:36.417Z,85.11
2023-04-27T05:56:08.906Z,84.56
2023-04-27T05:56:41.417Z,84.31
2023-04-27T05:57:13.948Z,84.28
2023-04-27T05:58:18.982Z,83.03
2023-04-27T05:58:51.505Z,82.16
2023-04-27T05:59:24.001Z,81.88
2023-04-27T05:59:56.528Z,80.05
2023-04-27T06:00:29.065Z,79.16
2023-04-27T06:01:01.635Z,78.47
2023-04-27T06:01:34.122Z,77.20
2023-04-27T06:02:06.633Z,75.69
2023-04-27T06:02:46.769Z,74.90
2023-04-27T06:03:19.255Z,73.50
2023-04-27T06:03:51.755Z,72.82
2023-04-27T06:04:24.295Z,71.53
2023-04-27T06:04:56.671Z,69.76
2023-04-27T06:05:29.214Z,67.35
2023-04-27T06:06:01.690Z,65.89
2023-04-27T06:06:34.195Z,66.33
2023-04-27T06:07:07.255Z,65.80
2023-04-27T06:07:39.284Z,65.12
2023-04-27T06:08:11.804Z,63.67
2023-04-27T06:08:44.389Z,64.32
2023-04-27T06:09:16.920Z,62.36
2023-04-27T06:09:50.108Z,60.07
2023-04-27T06:10:22.608Z,58.92
2023-04-27T06:10:55.123Z,58.18
2023-04-27T06:11:27.612Z,57.24
2023-04-27T06:12:00.130Z,56.31
2023-04-27T06:12:32.648Z,55.27
2023-04-27T06:13:05.150Z,54.64
2023-04-27T06:13:37.679Z,53.90
2023-04-27T06:14:10.226Z,52.67
2023-04-27T06:14:42.773Z,52.26
2023-04-27T06:15:15.298Z,50.72
2023-04-27T06:15:47.934Z,49.21
2023-04-27T06:16:20.437Z,48.39
2023-04-27T06:16:54.952Z,49.58
2023-04-27T06:17:35.082Z,50.27
2023-04-27T06:18:07.540Z,48.96
2023-04-27T06:18:40.032Z,48.93
2023-04-27T06:19:12.804Z,48.43
2023-04-27T06:19:45.087Z,47.80
2023-04-27T06:20:17.575Z,46.97
2023-04-27T06:20:50.095Z,46.17
2023-04-27T06:21:22.593Z,45.84
2023-04-27T06:21:55.078Z,45.74
2023-04-27T06:22:27.601Z,45.62
2023-04-27T06:23:00.069Z,44.21
2023-04-27T06:23:32.572Z,43.51
2023-04-27T06:24:05.052Z,42.70
2023-04-27T06:24:37.546Z,43.18
2023-04-27T06:25:10.073Z,41.06
2023-04-27T06:25:42.566Z,41.57
2023-04-27T06:26:15.074Z,42.38
2023-04-27T06:26:47.599Z,42.68
2023-04-27T06:27:20.082Z,42.18
2023-04-27T06:27:52.564Z,41.97
2023-04-27T06:28:25.064Z,42.98
2023-04-27T06:28:57.590Z,42.05
2023-04-27T06:29:30.109Z,42.15
2023-04-27T06:30:02.743Z,42.76
2023-04-27T06:30:36.435Z,42.44
2023-04-27T06:31:07.902Z,41.91
2023-04-27T06:31:40.351Z,40.30
2023-04-27T06:32:12.858Z,39.28
2023-04-27T06:32:45.409Z,39.80
2023-04-27T06:33:17.902Z,40.50
2023-04-27T06:33:50.374Z,41.79
2023-04-27T06:34:22.886Z,41.59
2023-04-27T06:34:55.453Z,41.77
2023-04-27T06:35:27.991Z,41.75
2023-04-27T06:36:00.518Z,40.73
2023-04-27T06:36:33.032Z,41.01
2023-04-27T06:37:05.594Z,40.41
2023-04-27T06:37:38.127Z,39.99
2023-04-27T06:38:10.732Z,39.07
2023-04-27T06:38:43.253Z,38.47
2023-04-27T06:39:15.969Z,37.66
2023-04-27T06:39:48.274Z,36.96
2023-04-27T06:40:20.809Z,36.87
2023-04-27T06:40:53.348Z,37.16
2023-04-27T06:41:25.907Z,36.94
2023-04-27T06:41:58.392Z,36.65
2023-04-27T06:42:30.890Z,37.73
2023-04-27T06:43:03.383Z,37.93
2023-04-27T06:43:35.878Z,38.01
2023-04-27T06:44:08.368Z,36.19
2023-04-27T06:44:40.902Z,36.96
2023-04-27T06:45:13.494Z,36.44
2023-04-27T06:45:46.168Z,34.13
2023-04-27T06:46:18.725Z,34.99
2023-04-27T06:46:51.247Z,33.18
2023-04-27T06:47:23.778Z,33.37
2023-04-27T06:47:56.319Z,31.67
2023-04-27T06:48:28.789Z,33.56
2023-04-27T06:49:01.301Z,32.26
2023-04-27T06:49:34.048Z,31.24
2023-04-27T06:50:06.612Z,32.74
2023-04-27T06:50:39.144Z,31.83
2023-04-27T06:51:11.643Z,31.83
2023-04-27T06:51:44.189Z,31.21
2023-04-27T06:52:16.690Z,31.91
2023-04-27T06:52:49.209Z,32.39
2023-04-27T06:53:21.712Z,31.47
2023-04-27T06:53:54.264Z,30.97
2023-04-27T06:54:26.770Z,30.56
2023-04-27T06:54:59.287Z,30.15
2023-04-27T06:55:31.801Z,29.34
2023-04-27T06:56:04.302Z,28.45
2023-04-27T06:56:36.817Z,28.64
2023-04-27T06:57:09.325Z,28.75
2023-04-27T06:57:41.837Z,30.33
2023-04-27T06:58:14.296Z,29.43
2023-04-27T06:58:46.801Z,29.03
2023-04-27T06:59:19.313Z,28.92
2023-04-27T06:59:51.822Z,29.39
2023-04-27T07:00:24.421Z,27.81
2023-04-27T07:00:56.915Z,29.30